Airport Name : Lisboa

Other Name : Lisbon

ICAO : LPPT

IATA : LIS

FAA :

Latitude : 38.781311

Longitude : -9.135919

Country : Portugal

Local Date and Time : 7/16/2018 9:06:00 PM

 

TAF (Terminal Aerodrome Forecast)

TAF LPPT 161700Z 1618/1724 34013KT CAVOK PROB40 1703/1708 9999 SCT012

 

METAR (METeorological Aerodrome Report)

LPPT 162000Z 31010KT 9999 FEW016 20/15 Q1019

LPPT 161930Z 33011KT 9999 FEW018 21/16 Q1020

LPPT 161900Z 33013KT 9999 FEW020 22/16 Q1020

LPPT 161830Z 33012KT 290V350 9999 FEW035 22/15 Q1020

LPPT 161800Z 33012KT 290V360 9999 FEW040 23/15 Q1020

LPPT 161730Z 33014KT 290V360 9999 FEW040 24/15 Q1020

LPPT 161700Z 31011KT 290V350 9999 FEW040 24/15 Q1020

LPPT 161630Z 32012KT 280V350 9999 FEW040 25/15 Q1020